Wilson Mersin — P3PA6 — position and weather

sailwx.info

Track history (hours):
 
Tides and Currents Weather Stations Pressure Air Temp Water Temp Dewpoint Dewpoint Depression Visibility Wind Speed Wind Dir Waves Ship Positions

Wilson Mersin

Last reported at 2017-Mar-26 15:32 UTC. Time now 2017-Mar-26 17:15 UTC.
Position N 57°20' E 011°30'.

Length 107 m; draft 7 m.

Type: Cargo ship. MMSI: 210072000.

Date/timePositionNaut miles runAvg speedWind from/ knotsBaromVisibWave heightAir tempDewpointWater temp
2017-Mar-26 15:32N 57°20' E 011°30'1111.0
2017-Mar-26 14:33N 57°30' E 011°26'9 8.6
2017-Mar-26 13:28N 57°35' E 011°41'0 0.0
2017-Mar-26 12:28N 57°35' E 011°41'1 1.0
2017-Mar-26 11:34N 57°35' E 011°39'1010.0
2017-Mar-26 10:31N 57°39' E 011°21'1111.1
2017-Mar-26 09:34N 57°43' E 011°03'1311.8
2017-Mar-26 08:30N 57°47' E 010°41'1111.8
2017-Mar-26 07:33N 57°48' E 010°20'6311.6
2017-Mar-26 02:11N 57°52' E 008°23'711.3
2017-Mar-26 01:33N 57°52' E 008°09'1110.5
2017-Mar-26 00:33N 57°53' E 007°49'1110.9
2017-Mar-25 23:33N 57°53' E 007°29'1211.9
2017-Mar-25 22:33N 57°54' E 007°07'1211.5
2017-Mar-25 21:33N 57°57' E 006°46'1211.9
2017-Mar-25 20:34N 58°04' E 006°27'1212.4
2017-Mar-25 19:33N 58°14' E 006°15'6 5.7
2017-Mar-25 18:33N 58°20' E 006°15'0 0.0
2017-Mar-25 17:33N 58°20' E 006°15'0 0.0
2017-Mar-25 16:34N 58°20' E 006°15'0 0.0
2017-Mar-25 15:32N 58°20' E 006°15'0 0.0
2017-Mar-25 14:33N 58°20' E 006°15'0 0.0
2017-Mar-25 13:33N 58°20' E 006°15'0 0.0
2017-Mar-25 12:33N 58°20' E 006°15'0 0.0
2017-Mar-25 11:33N 58°20' E 006°15'0 0.0
2017-Mar-25 10:33N 58°20' E 006°15'0 0.0
2017-Mar-25 09:33N 58°20' E 006°15'0 0.0
2017-Mar-25 08:33N 58°20' E 006°15'0 0.0
2017-Mar-25 07:33N 58°20' E 006°15'0 0.0
2017-Mar-25 06:33N 58°20' E 006°15'0 0.0
2017-Mar-25 05:34N 58°20' E 006°15'6 5.7
2017-Mar-25 04:33N 58°15' E 006°09'9 9.2
2017-Mar-25 03:33N 58°09' E 005°56'24710.7
2017-Mar-24 04:34N 55°24' E 000°20'1211.9
2017-Mar-24 03:32N 55°16' E 000°04'  
2017-Mar-17 22:33N 61°35' E 004°22'1110.9
2017-Mar-17 21:33N 61°45' E 004°30'1110.6
2017-Mar-17 20:33N 61°55' E 004°39'1110.6
2017-Mar-17 19:33N 62°05' E 004°49'1010.1
2017-Mar-17 18:33N 62°13' E 005°00'1010.1
2017-Mar-17 17:33N 62°22' E 005°13'1010.0
2017-Mar-17 16:32N 62°29' E 005°27'1010.1
2017-Mar-17 15:33N 62°37' E 005°41'9 9.5
2017-Mar-17 14:33N 62°44' E 005°55'9 9.1
2017-Mar-17 13:33N 62°50' E 006°09'9 8.7
2017-Mar-17 12:33N 62°56' E 006°22'8 8.4
2017-Mar-17 11:33N 63°02' E 006°36'8 8.1
2017-Mar-17 10:33N 63°08' E 006°49'8 8.3
2017-Mar-17 09:33N 63°13' E 007°02'8 8.4
2017-Mar-17 08:33N 63°20' E 007°15'8 8.1
2017-Mar-17 07:33N 63°26' E 007°25'7 6.5
2017-Mar-17 06:33N 63°31' E 007°34'6 5.8
2017-Mar-17 05:33N 63°36' E 007°42'6 6.3
2017-Mar-17 04:33N 63°41' E 007°51'7 7.2
2017-Mar-17 03:33N 63°47' E 008°00'7 6.8
2017-Mar-17 02:33N 63°52' E 008°10'6 6.4
2017-Mar-17 01:33N 63°57' E 008°19'  
Track history (hours):
 
Tides and Currents Weather Stations Pressure Air Temp Water Temp Dewpoint Dewpoint Depression Visibility Wind Speed Wind Dir Waves Ship Positions

Wilson Mersin

Last reported at 2017-Mar-26 15:32 UTC. Time now 2017-Mar-26 17:15 UTC.
Position N 57°20' E 011°30'.

Length 107 m; draft 7 m.

Type: Cargo ship. MMSI: 210072000.

Date/timePositionNaut miles runAvg speedWind from/ knotsBaromVisibWave heightAir tempDewpointWater temp
2017-Mar-26 15:32N 57°20' E 011°30'1111.0
2017-Mar-26 14:33N 57°30' E 011°26'9 8.6
2017-Mar-26 13:28N 57°35' E 011°41'0 0.0
2017-Mar-26 12:28N 57°35' E 011°41'1 1.0
2017-Mar-26 11:34N 57°35' E 011°39'1010.0
2017-Mar-26 10:31N 57°39' E 011°21'1111.1
2017-Mar-26 09:34N 57°43' E 011°03'1311.8
2017-Mar-26 08:30N 57°47' E 010°41'1111.8
2017-Mar-26 07:33N 57°48' E 010°20'6311.6
2017-Mar-26 02:11N 57°52' E 008°23'711.3
2017-Mar-26 01:33N 57°52' E 008°09'1110.5
2017-Mar-26 00:33N 57°53' E 007°49'1110.9
2017-Mar-25 23:33N 57°53' E 007°29'1211.9
2017-Mar-25 22:33N 57°54' E 007°07'1211.5
2017-Mar-25 21:33N 57°57' E 006°46'1211.9
2017-Mar-25 20:34N 58°04' E 006°27'1212.4
2017-Mar-25 19:33N 58°14' E 006°15'6 5.7
2017-Mar-25 18:33N 58°20' E 006°15'0 0.0
2017-Mar-25 17:33N 58°20' E 006°15'0 0.0
2017-Mar-25 16:34N 58°20' E 006°15'0 0.0
2017-Mar-25 15:32N 58°20' E 006°15'0 0.0
2017-Mar-25 14:33N 58°20' E 006°15'0 0.0
2017-Mar-25 13:33N 58°20' E 006°15'0 0.0
2017-Mar-25 12:33N 58°20' E 006°15'0 0.0
2017-Mar-25 11:33N 58°20' E 006°15'0 0.0
2017-Mar-25 10:33N 58°20' E 006°15'0 0.0
2017-Mar-25 09:33N 58°20' E 006°15'0 0.0
2017-Mar-25 08:33N 58°20' E 006°15'0 0.0
2017-Mar-25 07:33N 58°20' E 006°15'0 0.0
2017-Mar-25 06:33N 58°20' E 006°15'0 0.0
2017-Mar-25 05:34N 58°20' E 006°15'6 5.7
2017-Mar-25 04:33N 58°15' E 006°09'9 9.2
2017-Mar-25 03:33N 58°09' E 005°56'24710.7
2017-Mar-24 04:34N 55°24' E 000°20'1211.9
2017-Mar-24 03:32N 55°16' E 000°04'  
2017-Mar-17 22:33N 61°35' E 004°22'1110.9
2017-Mar-17 21:33N 61°45' E 004°30'1110.6
2017-Mar-17 20:33N 61°55' E 004°39'1110.6
2017-Mar-17 19:33N 62°05' E 004°49'1010.1
2017-Mar-17 18:33N 62°13' E 005°00'1010.1
2017-Mar-17 17:33N 62°22' E 005°13'1010.0
2017-Mar-17 16:32N 62°29' E 005°27'1010.1
2017-Mar-17 15:33N 62°37' E 005°41'9 9.5
2017-Mar-17 14:33N 62°44' E 005°55'9 9.1
2017-Mar-17 13:33N 62°50' E 006°09'9 8.7
2017-Mar-17 12:33N 62°56' E 006°22'8 8.4
2017-Mar-17 11:33N 63°02' E 006°36'8 8.1
2017-Mar-17 10:33N 63°08' E 006°49'8 8.3
2017-Mar-17 09:33N 63°13' E 007°02'8 8.4
2017-Mar-17 08:33N 63°20' E 007°15'8 8.1
2017-Mar-17 07:33N 63°26' E 007°25'7 6.5
2017-Mar-17 06:33N 63°31' E 007°34'6 5.8
2017-Mar-17 05:33N 63°36' E 007°42'6 6.3
2017-Mar-17 04:33N 63°41' E 007°51'7 7.2
2017-Mar-17 03:33N 63°47' E 008°00'7 6.8
2017-Mar-17 02:33N 63°52' E 008°10'6 6.4
2017-Mar-17 01:33N 63°57' E 008°19'  

Dump ship's entire track history